Caririacu, Brazil
Current Conditions -  °F | °C
As of 11:00 PM on Friday 21 Nov 2014 (Local Time) from SBJU Reporting Station
Light Rain Light Rain  
Wind Chill: 84°   Ceiling: Unl
Heat Index: 91°   Visibility: 6mi
Dew Point: 73°   Wind: 0mph
Humidity: 70%   Direction: NA
Pressure: 29.97"   Gusts: NA
Location:  7.04°S, 39.28°W
Report Text: SBJU 220200Z 00000KT 9999 -RA SCT018 29/23 Q1015
Loading
Personal Weather Stations






























Interactive Weather Map New forecast layout! Learn more

10-Day Weather Forecast

Advertisements
Track Severe Weather on mobile